createdAt,value
2023-02-25T00:00:39.107Z,1633.00
2023-02-25T00:01:39.104Z,1634.00
2023-02-25T00:02:39.181Z,1617.00
2023-02-25T00:03:39.117Z,1622.00
2023-02-25T00:04:39.078Z,1612.00
2023-02-25T00:05:39.068Z,1612.00
2023-02-25T00:06:39.085Z,1627.00
2023-02-25T00:55:29.499Z,500.00
2023-02-25T00:56:30.467Z,500.00
2023-02-25T00:57:30.457Z,500.00
2023-02-25T00:58:30.452Z,500.00
2023-02-25T00:59:30.444Z,500.00
2023-02-25T01:00:32.651Z,500.00
2023-02-25T01:01:30.531Z,500.00
2023-02-25T01:02:30.447Z,500.00
2023-02-25T01:03:30.411Z,500.00
2023-02-25T01:04:30.398Z,500.00
2023-02-25T01:05:30.407Z,500.00
2023-02-25T01:06:30.388Z,501.00
2023-02-25T01:07:30.366Z,502.00
2023-02-25T01:08:30.385Z,500.00
2023-02-25T01:09:30.361Z,502.00
2023-02-25T01:10:30.340Z,501.00
2023-02-25T01:11:30.372Z,500.00
2023-02-25T01:12:30.322Z,501.00
2023-02-25T01:13:30.356Z,500.00
2023-02-25T01:14:30.308Z,502.00
2023-02-25T01:15:30.395Z,503.00
2023-02-25T01:16:30.363Z,502.00
2023-02-25T01:17:30.287Z,500.00
2023-02-25T01:18:30.276Z,501.00
2023-02-25T01:19:30.260Z,501.00
2023-02-25T01:20:30.312Z,506.00
2023-02-25T01:21:30.250Z,500.00
2023-02-25T01:22:30.234Z,500.00
2023-02-25T01:23:30.235Z,501.00
2023-02-25T01:24:30.224Z,500.00
2023-02-25T01:25:30.247Z,500.00
2023-02-25T01:26:30.211Z,505.00
2023-02-25T01:27:30.212Z,501.00
2023-02-25T01:28:30.186Z,500.00
2023-02-25T01:29:30.174Z,500.00
2023-02-25T01:30:30.183Z,503.00
2023-02-25T01:31:30.337Z,504.00
2023-02-25T01:32:30.284Z,504.00
2023-02-25T01:33:30.135Z,502.00
2023-02-25T01:34:30.144Z,507.00
2023-02-25T01:35:30.167Z,500.00
2023-02-25T01:36:30.113Z,505.00
2023-02-25T01:37:30.104Z,504.00
2023-02-25T01:38:30.089Z,503.00
2023-02-25T01:39:30.084Z,508.00
2023-02-25T01:40:30.125Z,502.00
2023-02-25T01:41:30.084Z,508.00
2023-02-25T01:42:30.068Z,500.00
2023-02-25T01:43:30.086Z,500.00
2023-02-25T01:44:30.045Z,510.00
2023-02-25T01:45:30.095Z,505.00
2023-02-25T01:46:30.139Z,501.00
2023-02-25T01:47:30.022Z,508.00
2023-02-25T01:48:30.016Z,511.00
2023-02-25T01:49:30.040Z,505.00
2023-02-25T01:50:30.039Z,512.00
2023-02-25T01:51:29.985Z,516.00
2023-02-25T01:52:29.977Z,520.00
2023-02-25T01:53:29.973Z,507.00
2023-02-25T01:54:29.961Z,518.00
2023-02-25T01:55:29.983Z,529.00
2023-02-25T01:56:29.959Z,519.00
2023-02-25T01:57:29.939Z,512.00
2023-02-25T01:58:29.948Z,507.00
2023-02-25T01:59:29.938Z,508.00
2023-02-25T02:00:30.020Z,500.00
2023-02-25T02:01:29.908Z,503.00
2023-02-25T02:02:29.952Z,506.00
2023-02-25T02:03:29.889Z,511.00
2023-02-25T02:04:29.901Z,502.00
2023-02-25T02:05:29.868Z,515.00
2023-02-25T02:06:29.894Z,503.00
2023-02-25T02:07:29.845Z,500.00
2023-02-25T02:08:29.850Z,507.00
2023-02-25T02:09:29.834Z,510.00
2023-02-25T02:10:29.817Z,509.00
2023-02-25T02:11:29.825Z,506.00
2023-02-25T02:12:29.810Z,514.00
2023-02-25T02:13:29.795Z,519.00
2023-02-25T02:14:29.812Z,521.00
2023-02-25T02:15:29.804Z,504.00
2023-02-25T02:16:29.822Z,507.00
2023-02-25T02:17:30.366Z,508.00
2023-02-25T02:18:29.759Z,507.00
2023-02-25T02:19:29.743Z,506.00
2023-02-25T02:20:29.888Z,508.00
2023-02-25T02:21:29.731Z,506.00
2023-02-25T02:22:29.715Z,500.00
2023-02-25T02:23:29.713Z,509.00
2023-02-25T02:24:29.696Z,518.00
2023-02-25T02:25:29.718Z,513.00
2023-02-25T02:26:29.685Z,518.00
2023-02-25T02:27:29.723Z,520.00
2023-02-25T02:28:29.662Z,511.00
2023-02-25T02:29:29.651Z,515.00
2023-02-25T02:30:29.702Z,507.00
2023-02-25T02:31:29.711Z,519.00
2023-02-25T02:32:29.710Z,514.00
2023-02-25T02:33:29.624Z,517.00
2023-02-25T02:34:29.622Z,520.00
2023-02-25T02:35:29.613Z,518.00
2023-02-25T02:36:29.594Z,520.00
2023-02-25T02:37:29.596Z,522.00
2023-02-25T02:38:29.576Z,526.00
2023-02-25T02:39:29.568Z,526.00
2023-02-25T02:40:29.558Z,524.00
2023-02-25T02:41:29.574Z,519.00
2023-02-25T02:42:29.551Z,512.00
2023-02-25T02:43:29.551Z,520.00
2023-02-25T02:44:29.523Z,517.00
2023-02-25T02:45:29.588Z,521.00
2023-02-25T02:46:29.507Z,514.00
2023-02-25T02:47:29.524Z,507.00
2023-02-25T02:48:29.546Z,511.00
2023-02-25T02:49:29.495Z,515.00
2023-02-25T02:50:29.477Z,520.00
2023-02-25T02:51:29.465Z,516.00
2023-02-25T02:52:29.453Z,508.00
2023-02-25T02:53:29.455Z,511.00
2023-02-25T02:54:29.445Z,501.00
2023-02-25T02:55:29.423Z,505.00
2023-02-25T02:56:29.420Z,510.00
2023-02-25T02:57:29.409Z,507.00
2023-02-25T02:58:29.424Z,510.00
2023-02-25T02:59:29.436Z,518.00
2023-02-25T03:00:29.377Z,521.00
2023-02-25T03:01:29.577Z,505.00
2023-02-25T03:02:29.363Z,519.00
2023-02-25T03:03:29.395Z,509.00
2023-02-25T03:04:29.352Z,506.00
2023-02-25T03:05:29.337Z,509.00
2023-02-25T03:06:29.325Z,511.00
2023-02-25T03:07:29.323Z,516.00
2023-02-25T03:08:29.309Z,524.00
2023-02-25T03:09:29.302Z,523.00
2023-02-25T03:10:29.306Z,519.00
2023-02-25T03:11:29.288Z,518.00
2023-02-25T03:12:29.275Z,509.00
2023-02-25T03:13:29.263Z,518.00
2023-02-25T03:14:29.272Z,514.00
2023-02-25T03:15:29.251Z,507.00
2023-02-25T03:16:29.286Z,511.00
2023-02-25T03:17:29.234Z,514.00
2023-02-25T03:18:29.224Z,506.00
2023-02-25T03:19:29.242Z,513.00
2023-02-25T03:20:29.218Z,519.00
2023-02-25T03:21:29.208Z,511.00
2023-02-25T03:22:29.196Z,517.00
2023-02-25T03:23:29.189Z,515.00
2023-02-25T03:24:29.177Z,516.00
2023-02-25T03:25:29.183Z,515.00
2023-02-25T03:26:29.168Z,517.00
2023-02-25T03:27:29.160Z,510.00
2023-02-25T03:28:29.141Z,514.00
2023-02-25T03:29:29.136Z,505.00
2023-02-25T03:30:29.191Z,510.00
2023-02-25T03:31:29.180Z,504.00
2023-02-25T03:32:29.244Z,507.00
2023-02-25T03:33:29.105Z,517.00
2023-02-25T03:34:29.098Z,509.00
2023-02-25T03:35:29.104Z,512.00
2023-02-25T03:36:29.073Z,504.00
2023-02-25T03:37:29.076Z,509.00
2023-02-25T03:38:29.073Z,509.00
2023-02-25T03:39:29.065Z,510.00
2023-02-25T03:40:29.075Z,513.00
2023-02-25T03:41:29.039Z,506.00
2023-02-25T03:42:29.024Z,508.00
2023-02-25T03:43:29.023Z,512.00
2023-02-25T03:44:29.003Z,504.00
2023-02-25T03:45:28.999Z,500.00
2023-02-25T03:46:29.014Z,511.00
2023-02-25T03:47:29.020Z,510.00
2023-02-25T03:48:28.981Z,513.00
2023-02-25T03:49:28.965Z,513.00
2023-02-25T03:50:28.959Z,517.00
2023-02-25T03:51:28.969Z,516.00
2023-02-25T03:52:28.936Z,513.00
2023-02-25T03:53:28.933Z,517.00
2023-02-25T03:54:28.924Z,516.00
2023-02-25T03:55:28.913Z,507.00
2023-02-25T03:56:28.902Z,512.00
2023-02-25T03:57:28.891Z,518.00
2023-02-25T03:58:28.879Z,510.00
2023-02-25T03:59:28.878Z,500.00
2023-02-25T04:00:28.865Z,502.00
2023-02-25T04:01:28.854Z,506.00
2023-02-25T04:02:28.905Z,513.00
2023-02-25T04:03:28.838Z,507.00
2023-02-25T04:04:28.940Z,515.00
2023-02-25T04:05:28.837Z,517.00
2023-02-25T04:06:28.823Z,517.00
2023-02-25T04:07:28.826Z,516.00
2023-02-25T04:08:28.798Z,512.00
2023-02-25T04:09:28.784Z,521.00
2023-02-25T04:10:28.793Z,520.00
2023-02-25T04:11:28.765Z,513.00
2023-02-25T04:12:28.756Z,519.00
2023-02-25T04:13:28.747Z,509.00
2023-02-25T04:14:28.736Z,511.00
2023-02-25T04:15:28.790Z,516.00
2023-02-25T04:16:28.724Z,511.00
2023-02-25T04:17:28.715Z,507.00
2023-02-25T04:18:28.697Z,508.00
2023-02-25T04:19:28.698Z,511.00
2023-02-25T04:20:28.684Z,512.00
2023-02-25T04:21:28.683Z,510.00
2023-02-25T04:22:28.673Z,516.00
2023-02-25T04:23:28.683Z,510.00
2023-02-25T04:24:28.649Z,508.00
2023-02-25T04:25:28.644Z,503.00
2023-02-25T04:26:28.632Z,503.00
2023-02-25T04:27:28.630Z,510.00
2023-02-25T04:28:28.615Z,505.00
2023-02-25T04:29:28.607Z,503.00
2023-02-25T04:30:28.616Z,502.00
2023-02-25T04:31:28.734Z,500.00
2023-02-25T04:32:28.739Z,500.00
2023-02-25T04:33:28.576Z,504.00
2023-02-25T04:34:28.565Z,511.00
2023-02-25T04:35:28.552Z,511.00
2023-02-25T04:36:28.553Z,510.00
2023-02-25T04:37:28.545Z,515.00
2023-02-25T04:38:28.537Z,503.00
2023-02-25T04:39:28.543Z,505.00
2023-02-25T04:40:28.509Z,501.00
2023-02-25T04:41:28.510Z,502.00
2023-02-25T04:42:28.498Z,509.00
2023-02-25T04:43:28.493Z,505.00
2023-02-25T04:44:28.478Z,509.00
2023-02-25T04:45:28.470Z,506.00
2023-02-25T04:46:28.543Z,511.00
2023-02-25T04:47:28.451Z,502.00
2023-02-25T04:48:28.447Z,509.00
2023-02-25T04:49:28.441Z,508.00
2023-02-25T04:50:28.445Z,515.00
2023-02-25T04:51:28.430Z,507.00
2023-02-25T04:52:28.418Z,507.00
2023-02-25T04:53:28.418Z,509.00
2023-02-25T04:54:28.412Z,507.00
2023-02-25T04:55:28.411Z,512.00
2023-02-25T04:56:28.378Z,509.00
2023-02-25T04:57:28.362Z,511.00
2023-02-25T04:58:28.358Z,511.00
2023-02-25T04:59:28.352Z,516.00
2023-02-25T05:00:28.344Z,512.00
2023-02-25T05:01:28.400Z,513.00
2023-02-25T05:02:28.320Z,509.00
2023-02-25T05:03:28.312Z,513.00
2023-02-25T05:04:28.460Z,507.00
2023-02-25T05:05:28.300Z,515.00
2023-02-25T05:06:28.286Z,509.00
2023-02-25T05:07:28.275Z,510.00
2023-02-25T05:08:28.273Z,514.00
2023-02-25T05:09:28.258Z,516.00
2023-02-25T05:10:28.252Z,513.00
2023-02-25T05:11:28.274Z,514.00
2023-02-25T05:12:28.237Z,511.00
2023-02-25T05:13:28.230Z,511.00
2023-02-25T05:14:28.221Z,508.00
2023-02-25T05:15:28.211Z,509.00
2023-02-25T05:16:28.317Z,513.00
2023-02-25T05:17:28.190Z,508.00
2023-02-25T05:18:28.226Z,517.00
2023-02-25T05:19:28.176Z,518.00
2023-02-25T05:20:28.191Z,514.00
2023-02-25T05:21:28.158Z,511.00
2023-02-25T05:22:28.159Z,510.00
2023-02-25T05:23:28.142Z,516.00
2023-02-25T05:24:28.132Z,512.00
2023-02-25T05:25:28.122Z,511.00
2023-02-25T05:26:28.115Z,511.00
2023-02-25T05:27:28.134Z,512.00
2023-02-25T05:28:28.113Z,504.00
2023-02-25T05:29:28.175Z,509.00
2023-02-25T05:30:28.087Z,513.00
2023-02-25T05:31:28.198Z,518.00
2023-02-25T05:32:28.236Z,516.00
2023-02-25T05:33:28.079Z,512.00
2023-02-25T05:34:28.048Z,506.00
2023-02-25T05:35:28.046Z,511.00
2023-02-25T05:36:28.565Z,516.00
2023-02-25T05:37:28.029Z,513.00
2023-02-25T05:38:28.015Z,513.00
2023-02-25T05:39:27.998Z,510.00
2023-02-25T05:40:28.041Z,509.00
2023-02-25T05:41:27.981Z,509.00
2023-02-25T05:42:28.009Z,509.00
2023-02-25T05:43:28.000Z,507.00
2023-02-25T05:44:27.967Z,511.00
2023-02-25T05:45:27.949Z,510.00
2023-02-25T05:46:28.285Z,513.00
2023-02-25T05:47:27.943Z,511.00
2023-02-25T05:48:27.921Z,510.00
2023-02-25T05:49:27.936Z,504.00
2023-02-25T05:50:27.906Z,508.00
2023-02-25T05:51:27.895Z,506.00
2023-02-25T05:52:27.890Z,503.00
2023-02-25T05:53:27.889Z,504.00
2023-02-25T05:54:27.867Z,507.00
2023-02-25T05:55:27.864Z,505.00
2023-02-25T05:56:30.219Z,511.00
2023-02-25T05:57:27.841Z,512.00
2023-02-25T05:58:27.835Z,509.00
2023-02-25T05:59:27.850Z,509.00
2023-02-25T06:00:27.820Z,502.00
2023-02-25T06:01:27.947Z,501.00
2023-02-25T06:02:27.835Z,503.00
2023-02-25T06:03:27.879Z,503.00
2023-02-25T06:04:27.781Z,509.00
2023-02-25T06:05:27.772Z,505.00
2023-02-25T06:06:27.769Z,508.00
2023-02-25T06:07:27.748Z,504.00
2023-02-25T06:08:27.741Z,506.00
2023-02-25T06:09:27.730Z,504.00
2023-02-25T06:10:27.807Z,507.00
2023-02-25T06:11:27.721Z,506.00
2023-02-25T06:12:27.707Z,507.00
2023-02-25T06:13:27.709Z,509.00
2023-02-25T06:14:27.691Z,510.00
2023-02-25T06:15:27.703Z,510.00
2023-02-25T06:16:27.744Z,506.00
2023-02-25T06:17:27.702Z,509.00
2023-02-25T06:18:27.651Z,511.00
2023-02-25T06:19:27.647Z,502.00
2023-02-25T06:20:27.635Z,500.00
2023-02-25T06:21:27.662Z,504.00
2023-02-25T06:22:27.621Z,507.00
2023-02-25T06:23:27.618Z,503.00
2023-02-25T06:24:27.601Z,508.00
2023-02-25T06:25:27.594Z,504.00
2023-02-25T06:26:27.598Z,504.00
2023-02-25T06:27:27.596Z,505.00
2023-02-25T06:28:27.571Z,505.00
2023-02-25T06:29:27.551Z,507.00
2023-02-25T06:30:27.569Z,507.00
2023-02-25T06:31:27.602Z,507.00
2023-02-25T06:32:27.660Z,502.00
2023-02-25T06:33:27.529Z,506.00
2023-02-25T06:34:27.515Z,505.00
2023-02-25T06:35:27.511Z,504.00
2023-02-25T06:36:27.607Z,508.00
2023-02-25T06:37:27.485Z,502.00
2023-02-25T06:38:27.476Z,507.00
2023-02-25T06:39:27.472Z,505.00
2023-02-25T06:40:27.459Z,510.00
2023-02-25T06:41:27.459Z,506.00
2023-02-25T06:42:27.444Z,508.00
2023-02-25T06:43:27.438Z,508.00
2023-02-25T06:44:27.425Z,508.00
2023-02-25T06:45:27.415Z,510.00
2023-02-25T06:46:27.948Z,513.00
2023-02-25T06:47:27.430Z,513.00
2023-02-25T06:48:27.395Z,511.00
2023-02-25T06:49:27.377Z,507.00
2023-02-25T06:50:27.382Z,509.00
2023-02-25T06:51:27.362Z,506.00
2023-02-25T06:52:27.355Z,507.00
2023-02-25T06:53:27.345Z,507.00
2023-02-25T06:54:27.338Z,418.00
2023-02-25T06:55:27.334Z,400.00
2023-02-25T06:56:27.314Z,400.00
2023-02-25T06:57:27.311Z,400.00
2023-02-25T06:58:27.303Z,400.00
2023-02-25T06:59:27.301Z,400.00
2023-02-25T07:00:27.307Z,400.00
2023-02-25T07:01:27.352Z,400.00
2023-02-25T07:02:27.271Z,466.00
2023-02-25T07:03:27.294Z,517.00
2023-02-25T07:04:27.303Z,536.00
2023-02-25T07:05:27.239Z,571.00
2023-02-25T07:06:27.229Z,607.00
2023-02-25T07:07:27.226Z,626.00
2023-02-25T07:08:27.213Z,650.00
2023-02-25T07:09:27.221Z,697.00
2023-02-25T07:10:27.192Z,794.00
2023-02-25T07:11:27.192Z,869.00
2023-02-25T07:12:27.183Z,909.00
2023-02-25T07:13:27.169Z,978.00
2023-02-25T07:14:27.155Z,1003.00
2023-02-25T07:15:27.234Z,1025.00
2023-02-25T07:16:27.138Z,1080.00
2023-02-25T07:17:27.140Z,1123.00
2023-02-25T07:18:27.155Z,1145.00
2023-02-25T07:19:27.141Z,1179.00
2023-02-25T07:20:27.114Z,1210.00
2023-02-25T07:21:27.097Z,1249.00
2023-02-25T07:22:27.091Z,1263.00
2023-02-25T07:23:27.085Z,1287.00
2023-02-25T07:24:27.068Z,1321.00
2023-02-25T07:25:27.137Z,1322.00
2023-02-25T07:26:27.089Z,1359.00
2023-02-25T07:27:27.049Z,1412.00
2023-02-25T07:28:27.046Z,1451.00
2023-02-25T07:29:27.025Z,1475.00
2023-02-25T07:30:27.017Z,1496.00
2023-02-25T07:31:27.427Z,1529.00
2023-02-25T07:32:27.189Z,1547.00
2023-02-25T07:33:27.002Z,1564.00
2023-02-25T07:34:26.997Z,1595.00
2023-02-25T07:35:27.006Z,1629.00
2023-02-25T07:36:26.969Z,1658.00
2023-02-25T07:37:26.956Z,1666.00
2023-02-25T07:38:26.950Z,1688.00
2023-02-25T07:39:26.945Z,1676.00
2023-02-25T07:40:26.936Z,1726.00
2023-02-25T07:41:26.927Z,1743.00
2023-02-25T07:42:26.917Z,1778.00
2023-02-25T07:43:26.906Z,1787.00
2023-02-25T07:44:26.899Z,1795.00
2023-02-25T07:45:26.887Z,1789.00
2023-02-25T07:46:26.995Z,1794.00
2023-02-25T07:47:26.870Z,1806.00
2023-02-25T07:48:26.866Z,1833.00
2023-02-25T07:49:26.861Z,1847.00
2023-02-25T07:50:26.850Z,1872.00
2023-02-25T07:51:27.018Z,1888.00
2023-02-25T07:52:26.837Z,1897.00
2023-02-25T07:53:26.817Z,1922.00
2023-02-25T07:54:26.810Z,1652.00
2023-02-25T07:55:26.809Z,640.00
2023-02-25T07:56:26.816Z,539.00
2023-02-25T07:57:26.784Z,475.00
2023-02-25T07:58:26.776Z,500.00
2023-02-25T07:59:26.770Z,518.00
2023-02-25T08:00:26.760Z,503.00
2023-02-25T08:01:26.751Z,500.00
2023-02-25T08:02:26.792Z,547.00
2023-02-25T08:03:26.757Z,540.00
2023-02-25T08:04:26.794Z,540.00
2023-02-25T08:05:26.713Z,535.00
2023-02-25T08:06:26.705Z,549.00
2023-02-25T08:07:27.815Z,530.00
2023-02-25T08:08:26.697Z,544.00
2023-02-25T08:09:26.694Z,532.00
2023-02-25T08:10:26.688Z,595.00
2023-02-25T08:11:26.956Z,632.00
2023-02-25T08:12:26.652Z,709.00
2023-02-25T08:13:26.648Z,737.00
2023-02-25T08:14:26.633Z,733.00
2023-02-25T08:15:26.627Z,748.00
2023-02-25T08:16:26.620Z,817.00
2023-02-25T08:17:26.620Z,882.00
2023-02-25T08:18:26.646Z,980.00
2023-02-25T08:19:26.599Z,1044.00
2023-02-25T08:20:26.585Z,1077.00
2023-02-25T08:21:26.861Z,1126.00
2023-02-25T08:22:26.567Z,1185.00
2023-02-25T08:23:26.626Z,1231.00
2023-02-25T08:24:26.569Z,1246.00
2023-02-25T08:25:26.538Z,1280.00
2023-02-25T08:26:26.531Z,1330.00
2023-02-25T08:27:26.525Z,1342.00
2023-02-25T08:28:26.514Z,1385.00
2023-02-25T08:29:26.501Z,1424.00
2023-02-25T08:30:26.555Z,1454.00
2023-02-25T08:31:27.023Z,1499.00
2023-02-25T08:32:26.675Z,1542.00
2023-02-25T08:33:26.480Z,1572.00
2023-02-25T08:34:26.466Z,1618.00
2023-02-25T08:35:26.446Z,1630.00
2023-02-25T08:36:26.440Z,1683.00
2023-02-25T08:37:26.433Z,1707.00
2023-02-25T08:38:26.444Z,1719.00
2023-02-25T08:39:26.450Z,1772.00
2023-02-25T08:40:26.462Z,1806.00
2023-02-25T08:41:26.625Z,1831.00
2023-02-25T08:42:26.389Z,1860.00
2023-02-25T08:43:26.410Z,1887.00
2023-02-25T08:44:26.375Z,1890.00
2023-02-25T08:45:26.364Z,1925.00
2023-02-25T08:46:26.396Z,1944.00
2023-02-25T08:47:26.341Z,1981.00
2023-02-25T08:48:26.335Z,1979.00
2023-02-25T08:49:26.337Z,2026.00
2023-02-25T08:50:26.335Z,2038.00
2023-02-25T08:51:26.573Z,2041.00
2023-02-25T08:52:26.307Z,2065.00
2023-02-25T08:53:26.293Z,2080.00
2023-02-25T08:54:26.292Z,2092.00
2023-02-25T08:55:26.298Z,2088.00
2023-02-25T08:56:26.261Z,2088.00
2023-02-25T08:57:26.253Z,2106.00
2023-02-25T08:58:26.254Z,2132.00
2023-02-25T08:59:26.237Z,2142.00
2023-02-25T09:00:26.371Z,2160.00
2023-02-25T09:01:26.629Z,2175.00
2023-02-25T09:02:26.210Z,2170.00
2023-02-25T09:03:26.242Z,2217.00
2023-02-25T09:04:26.301Z,2209.00
2023-02-25T09:05:26.253Z,2230.00
2023-02-25T09:06:26.174Z,2264.00
2023-02-25T09:07:26.167Z,2257.00
2023-02-25T09:08:26.165Z,2279.00
2023-02-25T09:09:26.149Z,2287.00
2023-02-25T09:10:26.141Z,2296.00
2023-02-25T09:11:26.504Z,2312.00
2023-02-25T09:12:26.123Z,2335.00
2023-02-25T09:13:26.721Z,2336.00
2023-02-25T09:14:26.112Z,2349.00
2023-02-25T09:15:26.095Z,2360.00
2023-02-25T09:16:26.126Z,2373.00
2023-02-25T09:17:26.084Z,2379.00
2023-02-25T09:18:26.071Z,2392.00
2023-02-25T09:19:26.065Z,2395.00
2023-02-25T09:20:26.071Z,2399.00
2023-02-25T09:21:26.205Z,2421.00
2023-02-25T09:22:26.033Z,2420.00
2023-02-25T09:23:26.028Z,2435.00
2023-02-25T09:24:26.237Z,2439.00
2023-02-25T09:25:26.011Z,2448.00
2023-02-25T09:26:26.017Z,2411.00
2023-02-25T09:27:26.033Z,2423.00
2023-02-25T09:28:25.983Z,2269.00
2023-02-25T09:29:25.979Z,2226.00
2023-02-25T09:30:25.967Z,2273.00
2023-02-25T09:31:26.483Z,2283.00
2023-02-25T09:32:26.127Z,2412.00
2023-02-25T09:33:25.949Z,2432.00
2023-02-25T09:34:25.933Z,2433.00
2023-02-25T09:35:25.919Z,2435.00
2023-02-25T09:36:25.914Z,2433.00
2023-02-25T09:37:25.918Z,2433.00
2023-02-25T09:38:25.894Z,2451.00
2023-02-25T09:39:25.888Z,2453.00
2023-02-25T09:40:25.882Z,2464.00
2023-02-25T09:41:25.868Z,2477.00
2023-02-25T09:42:25.865Z,2501.00
2023-02-25T09:43:25.875Z,2498.00
2023-02-25T09:44:25.846Z,2518.00
2023-02-25T09:45:25.836Z,2536.00
2023-02-25T09:46:25.832Z,2552.00
2023-02-25T09:47:25.874Z,2547.00
2023-02-25T09:48:25.815Z,2563.00
2023-02-25T09:49:25.797Z,2571.00
2023-02-25T09:50:25.816Z,2583.00
2023-02-25T09:51:25.948Z,2598.00
2023-02-25T09:52:25.776Z,2598.00
2023-02-25T09:53:25.774Z,2621.00
2023-02-25T09:54:25.754Z,2629.00
2023-02-25T09:55:25.745Z,2640.00
2023-02-25T09:56:25.744Z,2650.00
2023-02-25T09:57:25.740Z,2660.00
2023-02-25T09:58:25.742Z,2669.00
2023-02-25T09:59:25.739Z,2669.00
2023-02-25T10:00:25.709Z,2676.00
2023-02-25T10:01:25.694Z,2686.00
2023-02-25T10:02:25.861Z,2686.00
2023-02-25T10:03:25.703Z,2695.00
2023-02-25T10:04:25.669Z,2715.00
2023-02-25T10:05:25.665Z,2724.00
2023-02-25T10:06:25.658Z,2724.00
2023-02-25T10:07:25.649Z,2725.00
2023-02-25T10:08:25.645Z,2736.00
2023-02-25T10:09:25.634Z,2748.00
2023-02-25T10:10:25.621Z,2763.00
2023-02-25T10:11:25.734Z,2763.00
2023-02-25T10:12:25.605Z,2774.00
2023-02-25T10:13:25.594Z,2769.00
2023-02-25T10:14:25.593Z,2792.00
2023-02-25T10:15:25.627Z,2786.00
2023-02-25T10:16:25.602Z,2796.00
2023-02-25T10:17:25.558Z,2813.00
2023-02-25T10:18:25.551Z,2803.00
2023-02-25T10:19:25.569Z,2803.00
2023-02-25T10:20:25.532Z,2812.00
2023-02-25T10:21:25.912Z,2830.00
2023-02-25T10:22:25.516Z,2835.00
2023-02-25T10:23:25.503Z,2832.00
2023-02-25T10:24:25.501Z,2856.00
2023-02-25T10:25:25.483Z,2847.00
2023-02-25T10:26:25.480Z,2868.00
2023-02-25T10:27:25.466Z,2875.00
2023-02-25T10:28:25.460Z,2874.00
2023-02-25T10:29:25.456Z,2876.00
2023-02-25T10:30:25.458Z,2795.00
2023-02-25T10:31:26.018Z,2642.00
2023-02-25T10:32:25.576Z,2529.00
2023-02-25T10:33:25.428Z,2440.00
2023-02-25T10:34:25.410Z,2501.00
2023-02-25T10:35:25.413Z,2514.00
2023-02-25T10:36:25.391Z,2422.00
2023-02-25T10:37:25.383Z,2317.00
2023-02-25T10:38:25.386Z,2205.00
2023-02-25T10:39:25.372Z,2228.00
2023-02-25T10:40:25.364Z,2354.00
2023-02-25T10:41:25.653Z,2070.00
2023-02-25T10:42:25.336Z,2246.00
2023-02-25T10:43:25.333Z,2335.00
2023-02-25T10:44:25.319Z,2343.00
2023-02-25T10:45:25.319Z,2330.00
2023-02-25T10:46:25.328Z,2330.00
2023-02-25T10:47:25.315Z,2315.00
2023-02-25T10:48:25.282Z,2338.00
2023-02-25T10:49:25.317Z,2324.00
2023-02-25T10:50:35.689Z,2333.00
2023-02-25T10:51:25.757Z,2335.00
2023-02-25T10:52:25.244Z,2336.00
2023-02-25T10:53:25.241Z,2340.00
2023-02-25T10:54:25.235Z,2357.00
2023-02-25T10:55:25.219Z,2373.00
2023-02-25T10:56:25.278Z,2397.00
2023-02-25T10:57:25.218Z,2410.00
2023-02-25T10:58:25.207Z,2436.00
2023-02-25T10:59:25.195Z,2432.00
2023-02-25T11:00:25.173Z,2432.00
2023-02-25T11:01:25.498Z,2444.00
2023-02-25T11:02:25.196Z,2451.00
2023-02-25T11:03:25.878Z,2454.00
2023-02-25T11:04:25.137Z,2463.00
2023-02-25T11:05:25.132Z,2478.00
2023-02-25T11:06:25.127Z,2491.00
2023-02-25T11:07:25.138Z,2499.00
2023-02-25T11:08:25.105Z,2501.00
2023-02-25T11:09:25.100Z,2530.00
2023-02-25T11:10:25.086Z,2523.00
2023-02-25T11:11:25.445Z,2535.00
2023-02-25T11:12:25.075Z,2547.00
2023-02-25T11:13:25.065Z,2565.00
2023-02-25T11:14:25.051Z,2592.00
2023-02-25T11:15:34.697Z,2596.00
2023-02-25T11:16:25.070Z,2598.00
2023-02-25T11:17:25.027Z,2603.00
2023-02-25T11:18:25.026Z,2609.00
2023-02-25T11:19:25.034Z,2619.00
2023-02-25T11:20:25.001Z,2640.00
2023-02-25T11:21:25.401Z,2642.00
2023-02-25T11:22:24.983Z,2666.00
2023-02-25T11:23:27.847Z,2664.00
2023-02-25T11:24:24.964Z,2666.00
2023-02-25T11:25:24.957Z,2669.00
2023-02-25T11:26:24.948Z,2671.00
2023-02-25T11:27:24.942Z,2687.00
2023-02-25T11:28:24.934Z,2700.00
2023-02-25T11:29:24.978Z,2715.00
2023-02-25T11:30:24.927Z,2716.00
2023-02-25T11:31:25.423Z,2717.00
2023-02-25T11:32:25.028Z,2729.00
2023-02-25T11:33:24.894Z,2746.00
2023-02-25T11:34:24.873Z,2730.00
2023-02-25T11:35:24.897Z,2731.00
2023-02-25T11:36:25.362Z,2732.00
2023-02-25T11:37:24.847Z,2749.00
2023-02-25T11:38:24.838Z,2751.00
2023-02-25T11:39:24.834Z,2756.00
2023-02-25T11:40:24.830Z,2762.00
2023-02-25T11:41:25.201Z,2768.00
2023-02-25T11:42:24.818Z,2685.00
2023-02-25T11:43:24.815Z,2552.00
2023-02-25T11:44:24.783Z,2536.00
2023-02-25T11:45:24.774Z,2567.00
2023-02-25T11:46:25.239Z,2486.00
2023-02-25T11:47:24.781Z,2580.00
2023-02-25T11:48:24.752Z,2563.00
2023-02-25T11:49:24.746Z,2605.00
2023-02-25T11:50:24.731Z,2532.00
2023-02-25T11:51:24.746Z,2363.00
2023-02-25T11:52:24.708Z,2201.00
2023-02-25T11:53:24.797Z,2184.00
2023-02-25T11:54:24.700Z,2193.00
2023-02-25T11:55:24.686Z,2115.00
2023-02-25T11:56:25.177Z,2003.00
2023-02-25T11:57:24.673Z,2024.00
2023-02-25T11:58:24.656Z,2122.00
2023-02-25T11:59:24.645Z,1955.00
2023-02-25T12:00:24.661Z,1961.00
2023-02-25T12:01:24.632Z,1838.00
2023-02-25T12:02:24.759Z,1876.00
2023-02-25T12:03:24.631Z,1795.00
2023-02-25T12:04:24.602Z,1802.00
2023-02-25T12:05:24.652Z,1792.00
2023-02-25T12:06:24.934Z,1730.00
2023-02-25T12:07:24.608Z,1744.00
2023-02-25T12:08:24.566Z,1645.00
2023-02-25T12:09:24.580Z,1658.00
2023-02-25T12:10:24.555Z,1679.00
2023-02-25T12:11:24.539Z,1626.00
2023-02-25T12:12:24.535Z,1610.00
2023-02-25T12:13:24.558Z,1631.00
2023-02-25T12:14:24.516Z,1587.00
2023-02-25T12:15:24.505Z,1604.00
2023-02-25T12:16:24.988Z,1587.00
2023-02-25T12:17:24.493Z,1571.00
2023-02-25T12:18:24.512Z,1570.00
2023-02-25T12:19:24.472Z,1530.00
2023-02-25T12:20:24.470Z,1480.00
2023-02-25T12:21:24.805Z,1516.00
2023-02-25T12:22:24.447Z,1441.00
2023-02-25T12:23:24.461Z,1462.00
2023-02-25T12:24:24.426Z,1486.00
2023-02-25T12:25:24.435Z,1562.00
2023-02-25T12:26:24.408Z,1549.00
2023-02-25T12:27:24.409Z,1522.00
2023-02-25T12:28:24.393Z,1531.00
2023-02-25T12:29:24.386Z,1522.00
2023-02-25T12:30:24.369Z,1525.00
2023-02-25T12:31:24.792Z,1504.00
2023-02-25T12:32:24.491Z,1513.00
2023-02-25T12:33:24.353Z,1511.00
2023-02-25T12:34:24.341Z,1503.00
2023-02-25T12:35:24.331Z,1495.00
2023-02-25T12:36:24.321Z,1504.00
2023-02-25T12:37:24.314Z,1511.00
2023-02-25T12:38:24.306Z,1497.00
2023-02-25T12:39:24.345Z,1499.00
2023-02-25T12:40:24.290Z,1495.00
2023-02-25T12:41:24.664Z,1506.00
2023-02-25T12:42:24.267Z,1502.00
2023-02-25T12:43:24.263Z,1491.00
2023-02-25T12:44:24.245Z,1486.00
2023-02-25T12:45:24.239Z,1490.00
2023-02-25T12:46:24.231Z,1483.00
2023-02-25T12:47:24.229Z,1470.00
2023-02-25T12:48:24.220Z,1469.00
2023-02-25T12:49:24.201Z,1463.00
2023-02-25T12:50:24.196Z,1466.00
2023-02-25T12:51:24.509Z,1469.00
2023-02-25T12:52:24.176Z,1449.00
2023-02-25T12:53:24.170Z,1455.00
2023-02-25T12:54:24.164Z,1447.00
2023-02-25T12:55:24.188Z,1457.00
2023-02-25T12:56:24.150Z,1442.00
2023-02-25T12:57:24.135Z,1441.00
2023-02-25T12:58:24.141Z,1449.00
2023-02-25T12:59:24.129Z,1446.00
2023-02-25T13:00:24.111Z,1441.00
2023-02-25T13:01:24.572Z,1441.00
2023-02-25T13:02:24.097Z,1440.00
2023-02-25T13:03:24.084Z,1436.00
2023-02-25T13:04:24.075Z,1441.00
2023-02-25T13:05:24.061Z,1455.00
2023-02-25T13:06:24.068Z,1444.00